createdAt,value
2022-08-25T00:01:22.495Z,31.71
2022-08-25T00:03:54.042Z,32.04
2022-08-25T00:06:22.182Z,32.19
2022-08-25T00:08:50.684Z,32.73
2022-08-25T00:11:22.182Z,32.94
2022-08-25T00:13:52.123Z,32.94
2022-08-25T00:16:22.156Z,33.26
2022-08-25T00:18:54.075Z,33.04
2022-08-25T00:21:22.636Z,33.59
2022-08-25T00:23:50.323Z,33.08
2022-08-25T00:26:18.803Z,32.79
2022-08-25T00:28:46.723Z,32.89
2022-08-25T00:31:16.223Z,32.89
2022-08-25T00:33:44.077Z,32.37
2022-08-25T00:36:12.730Z,32.57
2022-08-25T00:38:40.423Z,32.82
2022-08-25T00:41:08.970Z,32.97
2022-08-25T00:43:44.450Z,33.19
2022-08-25T00:46:16.712Z,33.58
2022-08-25T00:48:47.652Z,33.19
2022-08-25T00:51:25.630Z,33.52
2022-08-25T00:53:53.111Z,33.69
2022-08-25T00:56:22.052Z,33.84
2022-08-25T00:58:50.831Z,33.78
2022-08-25T01:01:18.349Z,33.36
2022-08-25T01:03:45.551Z,33.68
2022-08-25T01:06:14.192Z,33.69
2022-08-25T01:08:43.791Z,33.25
2022-08-25T01:11:12.370Z,33.32
2022-08-25T01:13:44.430Z,33.41
2022-08-25T01:16:14.320Z,33.73
2022-08-25T01:18:49.391Z,33.24
2022-08-25T01:21:21.237Z,33.54
2022-08-25T01:23:50.110Z,33.44
2022-08-25T01:26:21.130Z,33.41
2022-08-25T01:28:59.570Z,33.75
2022-08-25T01:31:27.977Z,33.61
2022-08-25T01:33:55.830Z,33.88
2022-08-25T01:36:26.189Z,34.45
2022-08-25T01:38:53.510Z,34.32
2022-08-25T01:41:35.231Z,34.54
2022-08-25T01:44:04.382Z,34.70
2022-08-25T01:46:32.366Z,34.50
2022-08-25T01:49:04.931Z,34.35
2022-08-25T01:51:42.824Z,34.65
2022-08-25T01:54:10.103Z,34.44
2022-08-25T01:56:37.200Z,34.59
2022-08-25T01:59:04.660Z,34.58
2022-08-25T02:01:31.773Z,35.07
2022-08-25T02:03:59.080Z,34.99
2022-08-25T02:06:30.747Z,35.05
2022-08-25T02:09:04.720Z,35.04
2022-08-25T02:11:32.601Z,35.34
2022-08-25T02:13:59.860Z,35.52
2022-08-25T02:16:31.062Z,35.61
2022-08-25T02:18:58.560Z,35.45
2022-08-25T02:21:26.500Z,35.43
2022-08-25T02:23:54.239Z,35.59
2022-08-25T02:26:23.040Z,35.47
2022-08-25T02:28:52.620Z,35.83
2022-08-25T02:31:22.240Z,35.79
2022-08-25T02:33:49.700Z,36.08
2022-08-25T02:36:17.120Z,36.03
2022-08-25T02:38:44.899Z,36.37
2022-08-25T02:41:15.780Z,36.29
2022-08-25T02:43:45.360Z,36.15
2022-08-25T02:46:13.445Z,36.36
2022-08-25T02:48:40.899Z,36.60
2022-08-25T02:51:10.382Z,36.50
2022-08-25T02:53:39.521Z,36.61
2022-08-25T02:56:07.200Z,37.18
2022-08-25T02:58:34.720Z,37.27
2022-08-25T03:01:04.950Z,37.14
2022-08-25T03:03:36.275Z,37.35
2022-08-25T03:06:06.879Z,37.59
2022-08-25T03:08:34.740Z,37.50
2022-08-25T03:11:02.879Z,37.75
2022-08-25T03:13:29.999Z,37.77
2022-08-25T03:15:57.523Z,37.99
2022-08-25T03:18:26.340Z,37.95
2022-08-25T03:20:53.619Z,38.00
2022-08-25T03:23:20.880Z,37.99
2022-08-25T03:25:48.140Z,38.03
2022-08-25T03:28:15.922Z,37.80
2022-08-25T03:30:43.660Z,38.07
2022-08-25T03:33:11.441Z,37.90
2022-08-25T03:35:42.299Z,37.70
2022-08-25T03:38:09.501Z,38.08
2022-08-25T03:40:36.581Z,38.21
2022-08-25T03:43:03.919Z,37.95
2022-08-25T03:45:31.793Z,38.05
2022-08-25T03:47:58.929Z,38.23
2022-08-25T03:50:26.219Z,38.15
2022-08-25T03:52:56.995Z,38.24
2022-08-25T03:55:26.220Z,38.30
2022-08-25T03:57:54.681Z,38.60
2022-08-25T04:00:23.081Z,38.50
2022-08-25T04:02:50.291Z,38.09
2022-08-25T04:05:17.661Z,38.12
2022-08-25T04:07:44.862Z,38.23
2022-08-25T04:10:13.500Z,38.24
2022-08-25T04:12:40.839Z,38.07
2022-08-25T04:15:10.382Z,38.41
2022-08-25T04:17:39.820Z,38.28
2022-08-25T04:20:09.739Z,37.93
2022-08-25T04:22:38.320Z,38.17
2022-08-25T04:25:07.360Z,38.04
2022-08-25T04:27:36.940Z,38.18
2022-08-25T04:30:06.319Z,38.51
2022-08-25T04:32:35.500Z,38.53
2022-08-25T04:35:02.865Z,38.57
2022-08-25T04:37:30.073Z,38.38
2022-08-25T04:39:57.315Z,38.63
2022-08-25T04:42:24.675Z,38.47
2022-08-25T04:44:53.328Z,38.55
2022-08-25T04:47:20.538Z,38.21
2022-08-25T04:49:47.693Z,38.54
2022-08-25T04:52:14.873Z,38.44
2022-08-25T04:54:42.701Z,38.28
2022-08-25T04:57:10.120Z,38.33
2022-08-25T04:59:37.300Z,38.73
2022-08-25T05:02:06.422Z,38.92
2022-08-25T05:04:36.324Z,38.94
2022-08-25T05:07:05.601Z,39.16
2022-08-25T05:09:33.361Z,39.03
2022-08-25T05:12:02.223Z,39.08
2022-08-25T05:14:30.555Z,39.15
2022-08-25T05:16:58.069Z,39.22
2022-08-25T05:19:27.373Z,39.23
2022-08-25T05:21:54.756Z,39.16
2022-08-25T05:24:26.485Z,38.69
2022-08-25T05:26:53.686Z,38.88
2022-08-25T05:29:20.846Z,39.24
2022-08-25T05:31:50.565Z,38.89
2022-08-25T05:34:19.149Z,39.03
2022-08-25T05:36:48.806Z,39.01
2022-08-25T05:39:16.486Z,39.18
2022-08-25T05:41:43.726Z,38.71
2022-08-25T05:44:11.805Z,38.62
2022-08-25T05:46:38.905Z,38.78
2022-08-25T05:49:06.026Z,38.77
2022-08-25T05:51:33.305Z,39.05
2022-08-25T05:54:01.846Z,38.84
2022-08-25T05:56:29.026Z,38.85
2022-08-25T05:58:56.130Z,38.71
2022-08-25T06:01:26.102Z,38.48
2022-08-25T06:03:53.410Z,38.25
2022-08-25T06:06:21.525Z,37.97
2022-08-25T06:08:48.747Z,37.77
2022-08-25T06:11:17.786Z,37.52
2022-08-25T06:13:44.867Z,37.40
2022-08-25T06:16:12.079Z,37.18
2022-08-25T06:18:39.508Z,37.04
2022-08-25T06:21:12.347Z,37.15
2022-08-25T06:23:41.147Z,36.87
2022-08-25T06:26:11.231Z,36.61
2022-08-25T06:28:47.747Z,36.24
2022-08-25T06:31:15.108Z,35.72
2022-08-25T06:33:42.307Z,35.66
2022-08-25T06:36:09.528Z,35.76
2022-08-25T06:38:37.282Z,35.39
2022-08-25T06:41:05.673Z,35.43
2022-08-25T06:43:34.023Z,36.17
2022-08-25T06:46:11.362Z,34.85
2022-08-25T06:48:38.501Z,34.18
2022-08-25T06:51:07.701Z,33.54
2022-08-25T06:53:38.562Z,34.21
2022-08-25T06:56:06.915Z,34.43
2022-08-25T06:58:34.487Z,34.32
2022-08-25T07:01:15.805Z,33.21
2022-08-25T07:03:48.270Z,33.83
2022-08-25T07:06:18.450Z,33.17
2022-08-25T07:08:47.120Z,32.66
2022-08-25T07:11:16.587Z,32.20
2022-08-25T07:13:45.716Z,31.34
2022-08-25T07:16:15.178Z,31.35
2022-08-25T07:18:42.383Z,30.86
2022-08-25T07:21:12.283Z,30.69
2022-08-25T07:23:40.339Z,31.13
2022-08-25T07:28:58.507Z,30.96
2022-08-25T07:31:29.874Z,30.71
2022-08-25T07:33:57.271Z,30.03
2022-08-25T07:36:24.693Z,30.35
2022-08-25T07:38:52.192Z,29.98
2022-08-25T07:41:19.381Z,30.20
2022-08-25T07:43:46.622Z,30.26
2022-08-25T07:46:13.964Z,29.92
2022-08-25T07:48:42.653Z,29.84
2022-08-25T07:51:20.381Z,31.43
2022-08-25T07:53:47.756Z,29.98
2022-08-25T07:56:17.201Z,29.46
2022-08-25T07:58:45.620Z,29.62
2022-08-25T08:01:15.021Z,29.47
2022-08-25T08:03:50.953Z,29.59
2022-08-25T08:06:20.828Z,29.58
2022-08-25T08:08:49.704Z,29.76
2022-08-25T08:11:18.402Z,29.58
2022-08-25T08:13:47.801Z,28.25
2022-08-25T08:16:19.747Z,29.07
2022-08-25T08:18:48.787Z,28.36
2022-08-25T08:21:19.911Z,29.12
2022-08-25T08:23:47.767Z,28.46
2022-08-25T08:26:15.289Z,28.72
2022-08-25T08:28:43.588Z,28.61
2022-08-25T08:31:10.925Z,28.67
2022-08-25T08:33:41.003Z,28.33
2022-08-25T08:36:11.906Z,28.51
2022-08-25T08:38:41.435Z,28.69
2022-08-25T08:41:26.667Z,28.51
2022-08-25T08:46:49.359Z,30.29
2022-08-25T08:49:28.041Z,29.41
2022-08-25T08:52:01.947Z,28.50
2022-08-25T08:54:36.261Z,28.50
2022-08-25T08:57:10.491Z,28.91
2022-08-25T08:59:49.309Z,28.39
2022-08-25T09:02:38.934Z,28.09
2022-08-25T09:05:17.465Z,28.06
2022-08-25T09:07:54.761Z,28.44
2022-08-25T09:10:24.648Z,27.94
2022-08-25T09:13:03.079Z,27.75
2022-08-25T09:15:45.043Z,27.87
2022-08-25T09:18:23.718Z,27.85
2022-08-25T09:21:09.137Z,29.09
2022-08-25T09:23:56.458Z,26.73
2022-08-25T09:26:37.137Z,27.97
2022-08-25T09:29:16.389Z,29.61
2022-08-25T09:31:45.580Z,27.42
2022-08-25T09:34:16.967Z,27.50
2022-08-25T09:36:44.308Z,26.86
2022-08-25T09:39:12.927Z,28.04
2022-08-25T09:41:46.327Z,28.82
2022-08-25T09:44:26.239Z,29.11
2022-08-25T09:47:01.316Z,28.36
2022-08-25T09:49:36.895Z,28.64
2022-08-25T09:52:22.512Z,28.27
2022-08-25T09:54:53.232Z,28.10
2022-08-25T09:57:33.493Z,27.09
2022-08-25T10:00:15.936Z,28.22
2022-08-25T10:02:44.642Z,27.90
2022-08-25T10:05:23.666Z,28.22
2022-08-25T10:07:55.726Z,29.70
2022-08-25T10:10:32.388Z,28.73
2022-08-25T10:13:00.561Z,28.37
2022-08-25T10:15:32.016Z,28.65
2022-08-25T10:18:21.832Z,30.21
2022-08-25T10:21:10.429Z,28.10
2022-08-25T10:23:41.932Z,28.07
2022-08-25T10:26:34.626Z,27.41
2022-08-25T10:29:21.415Z,27.04
2022-08-25T10:31:58.211Z,27.35
2022-08-25T10:34:44.407Z,27.35
2022-08-25T10:37:24.205Z,27.11
2022-08-25T10:40:07.542Z,27.18
2022-08-25T10:42:52.607Z,26.59
2022-08-25T10:45:23.645Z,27.04
2022-08-25T10:48:18.966Z,26.78
2022-08-25T10:50:53.707Z,26.47
2022-08-25T10:53:28.270Z,27.06
2022-08-25T10:56:07.301Z,26.39
2022-08-25T10:59:10.567Z,27.20
2022-08-25T11:02:17.930Z,26.60
2022-08-25T11:04:55.900Z,27.53
2022-08-25T11:07:29.525Z,27.19
2022-08-25T11:10:03.575Z,26.49
2022-08-25T11:12:34.326Z,26.28
2022-08-25T11:15:10.845Z,27.56
2022-08-25T11:17:50.362Z,26.29
2022-08-25T11:20:26.845Z,26.67
2022-08-25T11:23:11.785Z,27.93
2022-08-25T11:25:43.927Z,26.33
2022-08-25T11:28:16.587Z,25.58
2022-08-25T11:30:46.530Z,25.44
2022-08-25T11:33:16.806Z,26.89
2022-08-25T11:35:52.805Z,25.29
2022-08-25T11:38:36.507Z,25.63
2022-08-25T11:41:19.369Z,25.61
2022-08-25T11:44:26.747Z,24.79
2022-08-25T11:47:27.226Z,24.27
2022-08-25T11:50:02.270Z,24.65
2022-08-25T11:52:53.779Z,24.61
2022-08-25T11:55:26.829Z,26.37
2022-08-25T11:58:30.687Z,28.11
2022-08-25T12:00:59.755Z,26.20
2022-08-25T12:03:50.804Z,26.49
2022-08-25T12:06:29.907Z,25.03
2022-08-25T12:09:27.249Z,26.09
2022-08-25T12:11:58.244Z,25.93
2022-08-25T12:14:43.866Z,26.47
2022-08-25T12:17:25.806Z,25.07
2022-08-25T12:20:00.312Z,26.59
2022-08-25T12:22:43.464Z,25.48
2022-08-25T12:25:43.574Z,25.15
2022-08-25T12:28:35.004Z,24.35
2022-08-25T12:31:16.110Z,24.90
2022-08-25T12:34:02.745Z,25.18
2022-08-25T12:36:34.689Z,24.73
2022-08-25T12:39:19.006Z,25.41
2022-08-25T12:42:05.007Z,25.75
2022-08-25T12:44:42.426Z,25.96
2022-08-25T12:47:28.663Z,26.23
2022-08-25T12:50:40.544Z,26.42
2022-08-25T12:53:14.458Z,26.42
2022-08-25T12:55:49.824Z,27.30
2022-08-25T12:58:17.146Z,27.08
2022-08-25T13:01:17.430Z,26.69
2022-08-25T13:04:22.707Z,25.57
2022-08-25T13:07:16.426Z,26.08
2022-08-25T13:10:16.127Z,26.58
2022-08-25T13:12:51.950Z,27.36
2022-08-25T13:15:35.325Z,26.77
2022-08-25T13:18:22.866Z,27.23
2022-08-25T13:20:54.984Z,27.02
2022-08-25T13:23:29.126Z,26.79
2022-08-25T13:25:58.557Z,26.80
2022-08-25T13:28:30.403Z,26.65
2022-08-25T13:31:01.745Z,27.00
2022-08-25T13:33:29.603Z,26.66
2022-08-25T13:35:59.833Z,26.55
2022-08-25T13:38:27.274Z,26.48
2022-08-25T13:41:08.244Z,26.83
2022-08-25T13:43:37.955Z,26.17
2022-08-25T13:46:06.371Z,26.73
2022-08-25T13:48:36.385Z,26.37
2022-08-25T13:51:31.274Z,26.30
2022-08-25T13:54:02.166Z,26.88
2022-08-25T13:56:38.787Z,26.62
2022-08-25T13:59:26.824Z,26.87
2022-08-25T14:01:55.559Z,26.33
2022-08-25T14:04:32.088Z,26.04
2022-08-25T14:07:14.727Z,26.04
2022-08-25T14:09:49.364Z,26.45
2022-08-25T14:12:35.395Z,26.64
2022-08-25T14:15:08.746Z,26.27
2022-08-25T14:17:40.010Z,26.16
2022-08-25T14:20:21.726Z,25.65
2022-08-25T14:22:54.712Z,26.14
2022-08-25T14:25:22.025Z,26.40
2022-08-25T14:28:13.816Z,26.39
2022-08-25T14:30:46.006Z,26.30
2022-08-25T14:33:16.045Z,26.43
2022-08-25T14:35:47.577Z,26.07
2022-08-25T14:38:16.003Z,26.45
2022-08-25T14:40:45.103Z,26.08
2022-08-25T14:43:14.289Z,26.02
2022-08-25T14:45:45.310Z,25.92
2022-08-25T14:48:24.164Z,26.04
2022-08-25T14:50:51.783Z,25.33
2022-08-25T14:53:19.249Z,25.36
2022-08-25T14:55:46.384Z,26.07
2022-08-25T14:58:15.063Z,25.48
2022-08-25T15:00:45.105Z,26.27
2022-08-25T15:03:31.858Z,25.68
2022-08-25T15:06:00.669Z,25.15
2022-08-25T15:08:32.915Z,25.93
2022-08-25T15:11:00.766Z,26.03
2022-08-25T15:13:29.363Z,25.56
2022-08-25T15:15:58.791Z,25.49
2022-08-25T15:18:27.384Z,25.49
2022-08-25T15:20:54.510Z,25.34
2022-08-25T15:23:21.986Z,25.22
2022-08-25T15:25:52.954Z,25.16
2022-08-25T15:28:22.467Z,25.26
2022-08-25T15:30:51.387Z,24.54
2022-08-25T15:33:18.587Z,24.73
2022-08-25T15:35:46.286Z,24.61
2022-08-25T15:38:13.448Z,25.00
2022-08-25T15:40:40.926Z,25.15
2022-08-25T15:43:08.108Z,25.07
2022-08-25T15:45:36.507Z,24.67
2022-08-25T15:48:06.863Z,24.40
2022-08-25T15:50:38.616Z,24.59
2022-08-25T15:53:08.362Z,24.65
2022-08-25T15:55:39.374Z,24.86
2022-08-25T15:58:07.006Z,24.33
2022-08-25T16:00:37.984Z,24.93
2022-08-25T16:03:08.086Z,24.62
2022-08-25T16:05:36.726Z,24.34
2022-08-25T16:08:05.178Z,24.92
2022-08-25T16:10:35.045Z,23.83
2022-08-25T16:13:04.975Z,24.46
2022-08-25T16:15:33.647Z,24.08
2022-08-25T16:18:02.087Z,23.63
2022-08-25T16:20:35.586Z,24.16
2022-08-25T16:23:02.858Z,24.33
2022-08-25T16:25:31.809Z,24.55
2022-08-25T16:27:59.028Z,24.61
2022-08-25T16:30:26.326Z,24.12
2022-08-25T16:32:54.266Z,24.14
2022-08-25T16:35:21.446Z,23.72
2022-08-25T16:37:50.486Z,23.46
2022-08-25T16:40:18.531Z,22.91
2022-08-25T16:42:45.757Z,23.16
2022-08-25T16:45:13.146Z,23.58
2022-08-25T16:47:42.545Z,23.05
2022-08-25T16:50:11.103Z,23.20
2022-08-25T16:52:38.425Z,23.29
2022-08-25T16:55:10.007Z,23.32
2022-08-25T16:57:37.666Z,23.09
2022-08-25T17:00:07.207Z,23.01
2022-08-25T17:02:34.456Z,23.52
2022-08-25T17:05:02.171Z,23.66
2022-08-25T17:07:29.425Z,23.73
2022-08-25T17:09:59.415Z,23.40
2022-08-25T17:12:28.366Z,23.65
2022-08-25T17:14:55.586Z,23.36
2022-08-25T17:17:22.743Z,23.45
2022-08-25T17:19:54.874Z,23.68
2022-08-25T17:22:22.170Z,23.70
2022-08-25T17:24:59.425Z,23.73
2022-08-25T17:27:29.926Z,23.39
2022-08-25T17:29:58.046Z,24.13
2022-08-25T17:32:28.973Z,24.51
2022-08-25T17:34:59.064Z,24.94
2022-08-25T17:37:26.406Z,25.32
2022-08-25T17:39:56.703Z,25.28
2022-08-25T17:42:32.030Z,25.26
2022-08-25T17:44:59.137Z,25.60
2022-08-25T17:47:27.571Z,25.38
2022-08-25T17:49:54.747Z,25.87
2022-08-25T17:52:25.046Z,25.53
2022-08-25T17:54:53.026Z,25.88
2022-08-25T17:57:21.485Z,26.95
2022-08-25T17:59:50.024Z,28.23
2022-08-25T18:02:17.123Z,28.92
2022-08-25T18:04:44.323Z,29.64
2022-08-25T18:07:11.465Z,29.87
2022-08-25T18:09:38.824Z,29.98
2022-08-25T18:12:06.345Z,30.15
2022-08-25T18:14:33.463Z,29.67
2022-08-25T18:17:01.964Z,29.65
2022-08-25T18:19:30.023Z,30.00
2022-08-25T18:21:57.163Z,29.83
2022-08-25T18:24:25.009Z,29.96
2022-08-25T18:26:54.725Z,29.99
2022-08-25T18:29:22.083Z,30.13
2022-08-25T18:31:51.119Z,30.32
2022-08-25T18:34:20.845Z,30.13
2022-08-25T18:36:47.992Z,29.72
2022-08-25T18:39:15.363Z,30.04
2022-08-25T18:41:45.074Z,30.27
2022-08-25T18:44:12.504Z,30.11
2022-08-25T18:46:43.559Z,29.86
2022-08-25T18:49:15.687Z,29.64
2022-08-25T18:51:45.205Z,29.37
2022-08-25T18:54:22.370Z,30.01
2022-08-25T18:56:51.403Z,30.66
2022-08-25T18:59:19.166Z,30.63
2022-08-25T19:01:46.703Z,30.77
2022-08-25T19:04:15.017Z,30.29
2022-08-25T19:06:43.665Z,29.50
2022-08-25T19:09:12.531Z,29.21
2022-08-25T19:11:39.603Z,29.17
2022-08-25T19:14:12.300Z,28.85
2022-08-25T19:16:43.628Z,29.06
2022-08-25T19:19:13.526Z,29.35
2022-08-25T19:21:42.284Z,28.76
2022-08-25T19:24:13.824Z,28.76
2022-08-25T19:26:41.416Z,28.80
2022-08-25T19:29:14.204Z,28.64
2022-08-25T19:31:44.342Z,28.44
2022-08-25T19:34:15.403Z,28.36
2022-08-25T19:36:42.905Z,28.30
2022-08-25T19:39:14.704Z,28.27
2022-08-25T19:41:45.072Z,28.52
2022-08-25T19:44:12.452Z,28.46
2022-08-25T19:46:42.930Z,27.85
2022-08-25T19:49:13.225Z,28.26
2022-08-25T19:51:43.937Z,28.46
2022-08-25T19:54:16.044Z,28.46
2022-08-25T19:56:54.244Z,28.26
2022-08-25T19:59:23.144Z,28.13
2022-08-25T20:01:50.412Z,28.19
2022-08-25T20:04:17.744Z,28.12
2022-08-25T20:06:48.336Z,28.34
2022-08-25T20:09:20.859Z,28.43
2022-08-25T20:12:04.782Z,28.23
2022-08-25T20:14:34.184Z,28.20
2022-08-25T20:17:02.332Z,28.14
2022-08-25T20:19:30.024Z,28.33
2022-08-25T20:21:57.433Z,28.12
2022-08-25T20:24:26.845Z,29.14
2022-08-25T20:26:55.586Z,29.73
2022-08-25T20:29:22.883Z,30.63
2022-08-25T20:31:50.045Z,31.19
2022-08-25T20:34:17.165Z,31.14
2022-08-25T20:36:50.364Z,31.92
2022-08-25T20:39:19.471Z,30.82
2022-08-25T20:41:48.763Z,31.51
2022-08-25T20:44:16.086Z,30.29
2022-08-25T20:46:45.094Z,30.46
2022-08-25T20:49:12.572Z,31.27
2022-08-25T20:51:39.953Z,30.75
2022-08-25T20:54:07.384Z,30.19
2022-08-25T20:56:34.547Z,30.82
2022-08-25T20:59:03.135Z,30.66
2022-08-25T21:01:31.101Z,30.10
2022-08-25T21:04:01.210Z,29.82
2022-08-25T21:06:35.024Z,31.67
2022-08-25T21:09:04.731Z,31.87
2022-08-25T21:11:31.864Z,32.53
2022-08-25T21:13:58.985Z,32.00
2022-08-25T21:16:28.301Z,31.90
2022-08-25T21:18:55.884Z,30.55
2022-08-25T21:21:23.831Z,31.64
2022-08-25T21:23:53.243Z,30.69
2022-08-25T21:26:24.163Z,31.66
2022-08-25T21:28:53.684Z,30.67
2022-08-25T21:31:21.705Z,31.88
2022-08-25T21:33:52.864Z,32.13
2022-08-25T21:36:21.283Z,31.85
2022-08-25T21:38:48.884Z,32.67
2022-08-25T21:41:18.999Z,32.55
2022-08-25T21:43:46.403Z,31.97
2022-08-25T21:46:18.131Z,33.64
2022-08-25T21:48:46.475Z,33.14
2022-08-25T21:51:18.084Z,33.73
2022-08-25T21:53:46.725Z,33.49
2022-08-25T21:56:18.305Z,33.71
2022-08-25T21:58:49.117Z,33.38
2022-08-25T22:01:19.963Z,34.57
2022-08-25T22:03:47.645Z,33.31
2022-08-25T22:06:17.103Z,33.65
2022-08-25T22:08:44.284Z,34.21
2022-08-25T22:11:14.991Z,33.08
2022-08-25T22:13:43.279Z,33.56
2022-08-25T22:16:11.221Z,33.17
2022-08-25T22:18:40.343Z,33.46
2022-08-25T22:21:09.463Z,34.62
2022-08-25T22:23:44.055Z,33.82
2022-08-25T22:26:13.146Z,32.52
2022-08-25T22:28:43.240Z,33.96
2022-08-25T22:31:20.669Z,32.83
2022-08-25T22:33:49.128Z,33.57
2022-08-25T22:36:19.343Z,32.41
2022-08-25T22:38:49.244Z,33.63
2022-08-25T22:41:21.589Z,34.12
2022-08-25T22:43:50.207Z,33.07
2022-08-25T22:46:20.120Z,34.06
2022-08-25T22:48:47.304Z,33.26
2022-08-25T22:51:21.782Z,34.17
2022-08-25T22:53:51.441Z,34.45
2022-08-25T22:56:25.582Z,34.67
2022-08-25T22:58:53.327Z,34.81
2022-08-25T23:01:20.523Z,35.01
2022-08-25T23:03:48.424Z,35.06
2022-08-25T23:06:24.509Z,34.69
2022-08-25T23:08:55.046Z,34.89
2022-08-25T23:11:24.322Z,33.92
2022-08-25T23:13:54.427Z,33.57
2022-08-25T23:16:22.953Z,33.67
2022-08-25T23:18:50.123Z,33.66
2022-08-25T23:21:24.248Z,33.25
2022-08-25T23:23:53.985Z,33.54
2022-08-25T23:26:21.323Z,34.96
2022-08-25T23:28:49.046Z,35.07
2022-08-25T23:31:17.645Z,35.06
2022-08-25T23:33:45.258Z,35.34
2022-08-25T23:36:15.767Z,36.00
2022-08-25T23:38:51.867Z,35.25
2022-08-25T23:41:23.603Z,35.76
2022-08-25T23:43:52.402Z,35.62
2022-08-25T23:46:22.127Z,33.75
2022-08-25T23:48:50.483Z,35.61
2022-08-25T23:51:23.144Z,36.00
2022-08-25T23:53:50.985Z,34.19
2022-08-25T23:56:18.103Z,35.97
2022-08-25T23:58:47.364Z,35.29
